Time;durP1;ratioP1;P1;durP2;ratioP2;P2;SDS_P1;SDS_P2;PMS_P1;PMS_P2;Temp;Humidity;BMP_temperature;BMP_pressure;BME280_temperature;BME280_humidity;BME280_pressure;Samples;Min_cycle;Max_cycle;Signal;HPM_P1;HPM_P2
2023/03/08 00:02:06;;;;;;;;;1.00;1.00;;;;;20.36;53.00;98742.27;110040;1250;19361;-39
2023/03/08 00:04:34;;;;;;;;;1.00;1.00;;;;;20.35;52.86;98743.95;110054;1266;21582;-39
2023/03/08 00:07:01;;;;;;;;;1.00;1.00;;;;;20.36;53.00;98749.13;110033;1266;20089;-40
2023/03/08 00:09:29;;;;;;;;;3.00;3.00;;;;;20.37;53.01;98750.42;110033;1253;22273;-39
2023/03/08 00:11:56;;;;;;;;;3.00;3.00;;;;;20.36;53.09;98750.22;110040;1266;18401;-40
2023/03/08 00:14:24;;;;;;;;;1.00;1.00;;;;;20.35;52.81;98745.75;110018;1266;22327;-39
2023/03/08 00:16:51;;;;;;;;;1.00;1.00;;;;;20.35;52.74;98745.96;110039;1266;20720;-39
2023/03/08 00:19:18;;;;;;;;;3.00;3.00;;;;;20.35;52.74;98748.60;110029;1266;18402;-39
2023/03/08 00:21:46;;;;;;;;;2.00;1.00;;;;;20.35;52.77;98747.34;110036;1266;19987;-39
2023/03/08 00:24:15;;;;;;;;;1.00;1.00;;;;;20.35;52.95;98744.95;110017;1266;20922;-39
2023/03/08 00:26:43;;;;;;;;;2.00;2.00;;;;;20.35;52.84;98743.08;110022;1266;18927;-38
2023/03/08 00:29:10;;;;;;;;;1.00;1.00;;;;;20.34;52.82;98745.13;110041;1266;18626;-39
2023/03/08 00:31:37;;;;;;;;;1.00;1.00;;;;;20.33;52.89;98743.70;110030;1250;19385;-39
2023/03/08 00:34:05;;;;;;;;;1.00;1.00;;;;;20.34;53.03;98748.35;110048;1266;22425;-38
2023/03/08 00:36:32;;;;;;;;;1.00;1.00;;;;;20.34;52.81;98754.54;110008;1266;18604;-39
2023/03/08 00:39:00;;;;;;;;;1.00;1.00;;;;;20.33;52.76;98751.48;110016;1253;22931;-39
2023/03/08 00:41:27;;;;;;;;;1.00;1.00;;;;;20.32;52.95;98760.16;110014;1250;19565;-39
2023/03/08 00:43:54;;;;;;;;;1.00;1.00;;;;;20.33;52.69;98758.27;110014;1266;19936;-39
2023/03/08 00:46:22;;;;;;;;;1.00;1.00;;;;;20.33;52.72;98761.27;110026;1253;20715;-39
2023/03/08 00:48:49;;;;;;;;;4.00;3.00;;;;;20.32;52.65;98757.45;110022;1266;19874;-39
2023/03/08 00:51:17;;;;;;;;;1.00;1.00;;;;;20.33;52.76;98751.36;110011;1266;21450;-38
2023/03/08 00:53:44;;;;;;;;;1.00;1.00;;;;;20.33;52.55;98751.41;110016;1253;20922;-39
2023/03/08 00:56:11;;;;;;;;;1.00;1.00;;;;;20.33;52.58;98754.80;110008;1253;22950;-38
2023/03/08 00:58:39;;;;;;;;;1.00;1.00;;;;;20.32;52.56;98752.71;110031;1266;20228;-39
2023/03/08 01:01:06;;;;;;;;;1.00;1.00;;;;;20.33;52.51;98755.59;109995;1266;19337;-39
2023/03/08 01:03:34;;;;;;;;;1.00;1.00;;;;;20.33;52.59;98760.11;109979;1266;18464;-40
2023/03/08 01:06:01;;;;;;;;;1.00;1.00;;;;;20.31;52.59;98757.41;109951;1250;22351;-39
2023/03/08 01:08:28;;;;;;;;;1.67;1.67;;;;;20.32;52.56;98758.95;110016;1266;20745;-40
2023/03/08 01:10:56;;;;;;;;;1.00;1.00;;;;;20.32;52.72;98759.88;109959;1260;18523;-40
2023/03/08 01:13:24;;;;;;;;;1.00;1.00;;;;;20.31;52.48;98756.32;109986;1266;19859;-39
2023/03/08 01:15:51;;;;;;;;;1.00;1.00;;;;;20.32;52.49;98758.36;110055;1250;20824;-40
2023/03/08 01:18:19;;;;;;;;;1.00;1.00;;;;;20.32;52.67;98760.20;110067;1266;19578;-40
2023/03/08 01:20:46;;;;;;;;;2.00;1.00;;;;;20.32;52.51;98755.19;110023;1266;18963;-39
2023/03/08 01:23:14;;;;;;;;;1.00;1.00;;;;;20.31;52.40;98759.46;110017;1254;20831;-39
2023/03/08 01:25:41;;;;;;;;;2.00;2.00;;;;;20.31;52.46;98761.01;110017;1266;19701;-40
2023/03/08 01:28:08;;;;;;;;;1.00;1.00;;;;;20.30;52.47;98761.36;110038;1250;20045;-40
2023/03/08 01:30:36;;;;;;;;;3.00;3.00;;;;;20.31;52.59;98761.81;110026;1266;19376;-40
2023/03/08 01:33:03;;;;;;;;;1.00;1.00;;;;;20.31;52.31;98758.42;110030;1266;19551;-40
2023/03/08 01:35:31;;;;;;;;;1.00;1.00;;;;;20.30;52.41;98761.73;110039;1266;19953;-40
2023/03/08 01:37:58;;;;;;;;;1.00;1.00;;;;;20.31;52.27;98759.52;110049;1266;20741;-40
2023/03/08 01:40:25;;;;;;;;;1.00;1.00;;;;;20.30;52.55;98759.77;110050;1260;19879;-40
2023/03/08 01:42:53;;;;;;;;;1.00;1.00;;;;;20.30;52.45;98759.98;110051;1266;18658;-40
2023/03/08 01:45:20;;;;;;;;;1.00;1.00;;;;;20.30;52.40;98762.64;110053;1253;20814;-40
2023/03/08 01:47:48;;;;;;;;;1.00;1.00;;;;;20.30;52.41;98763.95;110049;1250;23490;-41
2023/03/08 01:50:15;;;;;;;;;3.00;1.00;;;;;20.30;52.43;98768.64;109961;1266;19909;-41
2023/03/08 01:52:45;;;;;;;;;3.00;3.00;;;;;20.30;52.28;98772.11;109956;1254;20992;-40
2023/03/08 01:55:13;;;;;;;;;1.00;1.00;;;;;20.30;52.48;98775.13;110081;1250;23092;-40
2023/03/08 01:57:40;;;;;;;;;1.00;1.00;;;;;20.31;52.17;98771.52;110061;1253;20007;-44
2023/03/08 02:00:08;;;;;;;;;1.00;1.00;;;;;20.30;52.26;98776.09;110060;1254;21903;-40
2023/03/08 02:02:36;;;;;;;;;1.00;1.00;;;;;20.28;52.39;98774.30;110074;1266;19494;-40
2023/03/08 02:05:03;;;;;;;;;1.00;1.00;;;;;20.29;52.22;98774.72;110041;1266;20109;-41
2023/03/08 02:07:31;;;;;;;;;1.00;1.00;;;;;20.29;52.25;98778.45;110073;1253;21287;-40
2023/03/08 02:09:58;;;;;;;;;1.00;1.00;;;;;20.28;52.41;98781.92;110062;1250;18507;-40
2023/03/08 02:12:26;;;;;;;;;1.00;1.00;;;;;20.29;52.26;98785.35;110032;1266;19994;-40
2023/03/08 02:14:53;;;;;;;;;1.00;1.00;;;;;20.28;52.14;98787.29;110046;1254;20787;-40
2023/03/08 02:17:20;;;;;;;;;1.00;1.00;;;;;20.28;52.18;98789.05;110027;1266;19717;-40
2023/03/08 02:19:48;;;;;;;;;4.00;3.00;;;;;20.27;52.11;98790.42;110036;1266;19978;-41
2023/03/08 02:22:15;;;;;;;;;1.00;1.00;;;;;20.28;52.13;98792.52;110036;1253;22751;-40
2023/03/08 02:24:43;;;;;;;;;1.00;1.00;;;;;20.27;52.14;98792.42;110048;1266;19530;-40
2023/03/08 02:27:11;;;;;;;;;1.00;1.00;;;;;20.28;52.20;98794.27;110021;1253;20274;-39
2023/03/08 02:29:39;;;;;;;;;1.00;1.00;;;;;20.28;52.00;98797.03;109994;1266;22712;-40
2023/03/08 02:32:06;;;;;;;;;1.00;1.00;;;;;20.27;51.89;98795.86;110032;1251;18562;-39
2023/03/08 02:34:34;;;;;;;;;1.00;1.00;;;;;20.27;51.95;98803.40;110021;1266;18797;-40
2023/03/08 02:37:02;;;;;;;;;1.00;1.00;;;;;20.27;51.98;98802.26;110078;1266;19518;-40
2023/03/08 02:39:29;;;;;;;;;1.00;1.00;;;;;20.27;51.81;98800.48;110043;1250;18500;-40
2023/03/08 02:41:56;;;;;;;;;3.00;3.00;;;;;20.27;51.97;98806.37;110031;1266;18659;-40
2023/03/08 02:44:24;;;;;;;;;1.00;1.00;;;;;20.27;51.82;98809.70;110061;1266;19382;-41
2023/03/08 02:46:51;;;;;;;;;1.00;1.00;;;;;20.26;51.88;98811.27;110049;1250;19636;-39
2023/03/08 02:49:19;;;;;;;;;1.67;1.67;;;;;20.26;51.89;98813.94;110040;1250;20097;-39
2023/03/08 02:51:46;;;;;;;;;3.00;3.00;;;;;20.26;52.05;98816.37;110019;1266;19348;-40
2023/03/08 02:54:13;;;;;;;;;3.00;3.00;;;;;20.27;52.11;98825.48;110013;1266;20458;-40
2023/03/08 02:56:41;;;;;;;;;1.00;1.00;;;;;20.26;51.97;98823.55;110017;1266;19977;-40
2023/03/08 02:59:08;;;;;;;;;1.00;1.00;;;;;20.26;51.92;98823.77;110021;1266;20906;-40
2023/03/08 03:01:36;;;;;;;;;1.00;1.00;;;;;20.27;51.84;98826.08;110042;1253;19572;-40
2023/03/08 03:04:04;;;;;;;;;3.00;3.00;;;;;20.25;51.97;98827.21;110087;1266;18587;-41
2023/03/08 03:06:31;;;;;;;;;3.00;1.00;;;;;20.26;51.84;98831.44;110019;1261;19374;-40
2023/03/08 03:08:58;;;;;;;;;1.00;1.00;;;;;20.25;51.68;98831.48;110024;1253;20815;-40
2023/03/08 03:11:26;;;;;;;;;1.00;1.00;;;;;20.25;51.91;98835.93;110021;1266;21251;-40
2023/03/08 03:13:53;;;;;;;;;1.00;1.00;;;;;20.26;51.81;98836.00;110025;1252;20648;-40
2023/03/08 03:16:21;;;;;;;;;3.00;3.00;;;;;20.25;51.98;98840.28;110053;1254;21915;-40
2023/03/08 03:18:48;;;;;;;;;1.00;1.00;;;;;20.25;51.87;98841.16;110030;1266;20010;-39
2023/03/08 03:21:16;;;;;;;;;1.00;1.00;;;;;20.25;51.73;98844.13;109883;1250;22408;-39
2023/03/08 03:23:43;;;;;;;;;1.00;1.00;;;;;20.24;51.60;98840.79;110026;1266;18422;-39
2023/03/08 03:26:10;;;;;;;;;1.00;1.00;;;;;20.24;51.87;98842.91;110050;1266;20273;-39
2023/03/08 03:28:38;;;;;;;;;1.00;1.00;;;;;20.25;51.83;98851.00;110046;1266;20865;-39
2023/03/08 03:31:05;;;;;;;;;1.00;1.00;;;;;20.24;51.56;98852.29;109998;1259;22022;-40
2023/03/08 03:33:33;;;;;;;;;2.00;2.00;;;;;20.25;51.70;98853.00;110015;1266;19967;-39
2023/03/08 03:36:00;;;;;;;;;1.00;1.00;;;;;20.24;51.72;98854.73;110045;1254;22172;-39
2023/03/08 03:38:27;;;;;;;;;1.00;1.00;;;;;20.24;51.82;98862.77;110011;1253;19605;-39
2023/03/08 03:40:55;;;;;;;;;1.00;1.00;;;;;20.23;51.71;98861.98;110036;1266;19832;-40
2023/03/08 03:43:22;;;;;;;;;1.00;1.00;;;;;20.23;51.69;98867.71;110024;1260;22715;-40
2023/03/08 03:45:50;;;;;;;;;1.00;1.00;;;;;20.24;51.73;98872.73;110036;1250;22293;-40
2023/03/08 03:48:17;;;;;;;;;1.00;1.00;;;;;20.24;51.67;98878.92;110026;1250;20112;-39
2023/03/08 03:50:45;;;;;;;;;1.00;1.00;;;;;20.23;51.59;98879.73;110015;1266;22136;-40
2023/03/08 03:53:12;;;;;;;;;1.00;1.00;;;;;20.24;51.61;98884.74;110010;1266;19852;-39
2023/03/08 03:55:40;;;;;;;;;1.00;1.00;;;;;20.23;51.61;98881.14;109895;1266;19961;-38
2023/03/08 03:58:07;;;;;;;;;1.00;1.00;;;;;20.23;51.67;98888.59;109931;1266;22760;-39
2023/03/08 04:00:35;;;;;;;;;1.00;1.00;;;;;20.22;51.73;98895.63;110039;1254;19676;-39
2023/03/08 04:03:02;;;;;;;;;1.00;1.00;;;;;20.23;51.52;98894.12;110037;1261;18587;-39
2023/03/08 04:05:29;;;;;;;;;1.00;1.00;;;;;20.22;51.56;98898.69;110029;1251;21027;-40
2023/03/08 04:07:57;;;;;;;;;1.00;1.00;;;;;20.22;51.79;98900.86;110028;1266;19647;-40
2023/03/08 04:10:24;;;;;;;;;1.00;1.00;;;;;20.22;51.54;98900.14;110016;1266;23344;-40
2023/03/08 04:12:52;;;;;;;;;1.67;1.67;;;;;20.22;51.49;98903.80;110017;1253;20906;-40
2023/03/08 04:15:19;;;;;;;;;1.00;1.00;;;;;20.22;51.71;98905.80;109965;1251;19522;-38
2023/03/08 04:17:46;;;;;;;;;1.00;1.00;;;;;20.22;51.55;98911.27;109974;1266;18640;-38
2023/03/08 04:20:14;;;;;;;;;1.00;1.00;;;;;20.21;51.44;98909.02;110103;1266;21065;-37
2023/03/08 04:22:41;;;;;;;;;1.00;1.00;;;;;20.22;51.71;98916.14;110065;1251;19523;-38
2023/03/08 04:25:09;;;;;;;;;1.00;1.00;;;;;20.21;51.51;98914.63;110048;1266;19764;-38
2023/03/08 04:27:36;;;;;;;;;1.00;1.00;;;;;20.22;51.47;98921.08;110015;1266;20584;-40
2023/03/08 04:30:04;;;;;;;;;1.00;1.00;;;;;20.21;51.63;98918.64;109924;1266;18519;-40
2023/03/08 04:32:31;;;;;;;;;1.00;1.00;;;;;20.21;51.53;98921.33;109996;1266;19997;-40
2023/03/08 04:34:59;;;;;;;;;1.00;1.00;;;;;20.21;51.26;98920.80;110027;1266;19512;-39
2023/03/08 04:37:26;;;;;;;;;1.00;1.00;;;;;20.21;51.26;98922.27;109989;1253;22219;-39
2023/03/08 04:39:53;;;;;;;;;1.00;1.00;;;;;20.20;51.28;98926.34;110008;1253;20057;-39
2023/03/08 04:42:21;;;;;;;;;1.00;1.00;;;;;20.20;51.41;98929.98;110046;1253;21215;-38
2023/03/08 04:44:48;;;;;;;;;1.00;1.00;;;;;20.20;51.44;98926.64;109996;1266;22312;-39
2023/03/08 04:47:16;;;;;;;;;1.00;1.00;;;;;20.20;51.38;98927.48;110015;1250;19990;-41
2023/03/08 04:49:43;;;;;;;;;1.00;1.00;;;;;20.20;51.21;98925.34;109983;1266;19547;-39
2023/03/08 04:52:10;;;;;;;;;1.00;1.00;;;;;20.20;51.45;98929.48;109930;1266;21810;-39
2023/03/08 04:54:38;;;;;;;;;1.00;1.00;;;;;20.19;51.38;98923.17;110030;1254;19933;-41
2023/03/08 04:57:06;;;;;;;;;1.00;1.00;;;;;20.20;51.30;98929.36;109997;1266;19372;-38
2023/03/08 04:59:33;;;;;;;;;1.00;1.00;;;;;20.19;51.34;98929.28;109961;1266;18545;-37
2023/03/08 05:02:00;;;;;;;;;1.00;1.00;;;;;20.20;51.19;98935.34;109923;1266;20534;-38
2023/03/08 05:04:28;;;;;;;;;1.00;1.00;;;;;20.19;51.21;98938.86;109933;1250;22196;-39
2023/03/08 05:06:55;;;;;;;;;1.00;1.00;;;;;20.19;51.22;98943.21;109994;1250;19851;-39
2023/03/08 05:09:23;;;;;;;;;1.00;1.00;;;;;20.19;51.29;98944.14;110039;1266;18828;-41
2023/03/08 05:11:50;;;;;;;;;2.00;1.00;;;;;20.18;51.15;98941.51;110013;1251;20785;-39
2023/03/08 05:14:18;;;;;;;;;1.00;1.00;;;;;20.18;51.24;98943.73;110037;1250;19587;-39
2023/03/08 05:16:45;;;;;;;;;1.00;1.00;;;;;20.18;51.23;98947.75;110000;1266;20286;-39
2023/03/08 05:19:13;;;;;;;;;1.00;1.00;;;;;20.18;51.16;98950.14;110036;1266;20796;-40
2023/03/08 05:21:40;;;;;;;;;1.00;1.00;;;;;20.18;50.99;98955.86;110041;1266;22664;-39
2023/03/08 05:24:08;;;;;;;;;1.00;1.00;;;;;20.18;51.16;98955.90;110021;1266;18605;-40
2023/03/08 05:26:35;;;;;;;;;1.00;1.00;;;;;20.18;51.10;98960.80;109894;1252;22179;-39
2023/03/08 05:29:05;;;;;;;;;1.00;1.00;;;;;20.18;51.18;98966.25;109916;1266;18462;-39
2023/03/08 05:31:32;;;;;;;;;1.00;1.00;;;;;20.18;51.22;98965.36;109932;1266;18603;-40
2023/03/08 05:34:00;;;;;;;;;1.00;1.00;;;;;20.18;51.09;98969.34;109925;1266;20697;-42
2023/03/08 05:36:27;;;;;;;;;1.00;1.00;;;;;20.18;50.96;98976.29;110062;1266;19519;-39
2023/03/08 05:38:54;;;;;;;;;1.00;1.00;;;;;20.17;50.97;98981.35;110056;1266;18639;-40
2023/03/08 05:41:22;;;;;;;;;1.00;1.00;;;;;20.18;51.02;98986.25;110020;1266;20619;-40
2023/03/08 05:43:49;;;;;;;;;1.00;1.00;;;;;20.18;51.08;98988.55;110021;1259;19749;-39
2023/03/08 05:46:17;;;;;;;;;1.00;1.00;;;;;20.18;50.91;98993.32;109901;1254;20090;-40
2023/03/08 05:48:44;;;;;;;;;1.00;1.00;;;;;20.17;51.03;98998.80;110021;1266;20906;-40
2023/03/08 05:51:11;;;;;;;;;1.00;1.00;;;;;20.20;50.92;99002.38;110050;1260;19554;-39
2023/03/08 05:53:39;;;;;;;;;1.00;1.00;;;;;20.22;50.80;99004.64;110018;1266;18576;-40
2023/03/08 05:56:08;;;;;;;;;1.00;1.00;;;;;20.24;50.71;99000.36;110019;1266;19354;-40
2023/03/08 05:58:36;;;;;;;;;3.00;1.00;;;;;20.28;50.84;99001.31;110031;1266;22332;-40
2023/03/08 06:01:03;;;;;;;;;1.00;1.00;;;;;20.34;50.74;99004.37;110054;1250;18618;-39
2023/03/08 06:03:31;;;;;;;;;1.00;1.00;;;;;20.38;51.19;99007.83;110024;1266;22719;-40
2023/03/08 06:05:58;;;;;;;;;3.00;3.00;;;;;20.40;51.41;99014.65;110053;1266;19519;-41
2023/03/08 06:08:25;;;;;;;;;1.00;1.00;;;;;20.40;51.66;99014.36;110066;1260;21858;-40
2023/03/08 06:10:53;;;;;;;;;1.67;1.67;;;;;20.40;51.51;99017.67;110045;1266;20734;-41
2023/03/08 06:13:20;;;;;;;;;2.00;2.00;;;;;20.42;51.53;99025.23;110042;1260;19546;-40
2023/03/08 06:15:48;;;;;;;;;1.00;1.00;;;;;20.44;51.44;99032.42;110054;1266;19862;-41
2023/03/08 06:18:15;;;;;;;;;1.00;1.00;;;;;20.46;51.66;99033.63;110060;1266;19316;-40
2023/03/08 06:20:42;;;;;;;;;1.00;1.00;;;;;20.48;51.67;99040.61;110070;1253;19619;-40
2023/03/08 06:23:10;;;;;;;;;1.00;1.00;;;;;20.48;51.53;99044.65;110069;1266;19945;-40
2023/03/08 06:25:37;;;;;;;;;1.00;1.00;;;;;20.50;51.39;99046.90;110037;1266;19386;-40
2023/03/08 06:28:05;;;;;;;;;1.00;1.00;;;;;20.55;51.20;99045.42;110066;1266;19554;-41
2023/03/08 06:30:32;;;;;;;;;2.00;2.00;;;;;20.56;51.35;99053.20;110040;1253;20107;-38
2023/03/08 06:33:00;;;;;;;;;4.00;2.00;;;;;20.59;51.20;99057.23;110015;1266;22383;-39
2023/03/08 06:35:27;;;;;;;;;1.00;1.00;;;;;20.61;51.47;99061.77;110038;1254;19591;-38
2023/03/08 06:37:55;;;;;;;;;2.00;1.00;;;;;20.64;51.32;99066.82;110048;1254;20073;-38
2023/03/08 06:40:22;;;;;;;;;1.50;1.50;;;;;20.67;51.12;99067.86;109934;1265;19733;-38
2023/03/08 06:42:49;;;;;;;;;3.50;3.50;;;;;20.69;51.38;99069.10;109937;1266;22219;-38
2023/03/08 06:45:17;;;;;;;;;8.00;8.00;;;;;20.73;51.43;99074.56;109967;1253;20605;-38
2023/03/08 06:47:44;;;;;;;;;90.00;69.50;;;;;20.75;51.21;99077.96;109949;1266;20763;-38
2023/03/08 06:50:12;;;;;;;;;131.00;108.33;;;;;20.78;51.64;99082.55;110012;1250;21574;-38
2023/03/08 06:52:39;;;;;;;;;131.33;107.33;;;;;20.81;51.95;99084.00;109926;1266;18833;-39
2023/03/08 06:55:07;;;;;;;;;100.00;76.50;;;;;20.83;52.28;99086.31;110029;1252;21017;-39
2023/03/08 06:57:34;;;;;;;;;91.00;68.00;;;;;20.82;52.13;99093.48;110021;1266;22657;-39
2023/03/08 07:00:02;;;;;;;;;86.50;65.00;;;;;20.84;52.08;99094.08;110021;1266;20297;-39
2023/03/08 07:02:30;;;;;;;;;73.00;56.50;;;;;20.89;52.16;99094.15;110013;1266;22380;-39
2023/03/08 07:04:58;;;;;;;;;64.00;49.00;;;;;20.87;52.23;99094.61;110020;1266;18729;-40
2023/03/08 07:07:25;;;;;;;;;57.33;46.67;;;;;20.88;51.79;99098.21;110025;1252;20200;-44
2023/03/08 07:09:52;;;;;;;;;56.00;44.00;;;;;20.90;51.61;99103.39;110003;1250;19427;-40
2023/03/08 07:12:20;;;;;;;;;47.00;38.00;;;;;20.91;51.38;99099.95;110007;1254;22083;-40
2023/03/08 07:14:47;;;;;;;;;49.00;41.00;;;;;20.92;51.05;99102.71;110000;1266;21521;-41
2023/03/08 07:17:15;;;;;;;;;38.00;35.00;;;;;20.93;50.99;99113.61;109995;1253;20749;-40
2023/03/08 07:19:42;;;;;;;;;38.00;33.00;;;;;20.93;50.78;99108.24;110050;1250;18549;-39
2023/03/08 07:22:11;;;;;;;;;32.00;30.50;;;;;20.93;50.78;99109.02;110021;1254;20560;-41
2023/03/08 07:24:39;;;;;;;;;33.00;27.00;;;;;20.96;50.54;99113.63;110050;1266;19397;-40
2023/03/08 07:27:06;;;;;;;;;27.00;27.00;;;;;20.99;50.62;99123.88;110037;1253;20134;-39
2023/03/08 07:29:34;;;;;;;;;30.00;26.00;;;;;21.02;50.43;99123.86;110035;1253;21789;-40
2023/03/08 07:32:01;;;;;;;;;26.50;23.50;;;;;21.01;50.19;99120.69;110047;1266;19364;-41
2023/03/08 07:34:29;;;;;;;;;26.00;24.00;;;;;21.04;50.19;99126.07;110030;1266;19953;-41
2023/03/08 07:36:56;;;;;;;;;30.00;23.00;;;;;21.07;49.97;99134.52;110021;1266;18736;-40
2023/03/08 07:39:23;;;;;;;;;25.33;21.67;;;;;21.11;49.84;99141.70;110032;1266;19360;-40
2023/03/08 07:41:51;;;;;;;;;23.00;20.00;;;;;21.12;49.79;99139.86;110032;1266;19974;-40
2023/03/08 07:44:18;;;;;;;;;28.00;21.00;;;;;21.13;49.70;99142.09;110061;1254;20206;-40
2023/03/08 07:46:46;;;;;;;;;23.50;22.50;;;;;21.16;49.54;99143.90;110015;1266;19664;-38
2023/03/08 07:49:13;;;;;;;;;20.00;18.00;;;;;21.17;49.29;99147.55;110003;1266;18559;-40
2023/03/08 07:51:40;;;;;;;;;20.00;18.00;;;;;21.18;49.36;99146.50;109991;1254;20249;-38
2023/03/08 07:54:09;;;;;;;;;19.00;16.00;;;;;21.19;49.26;99150.73;110034;1266;19353;-39
2023/03/08 07:56:36;;;;;;;;;17.00;14.00;;;;;21.20;49.27;99153.06;110015;1253;20112;-39
2023/03/08 07:59:04;;;;;;;;;16.50;15.00;;;;;21.22;49.10;99156.45;110043;1266;22286;-39
2023/03/08 08:01:32;;;;;;;;;20.00;17.00;;;;;21.22;49.13;99160.17;110012;1250;20742;-39
2023/03/08 08:03:59;;;;;;;;;14.00;14.00;;;;;21.18;48.50;99162.09;110057;1253;19998;-39
2023/03/08 08:06:27;;;;;;;;;17.00;16.00;;;;;21.06;47.17;99164.25;110026;1266;18755;-41
2023/03/08 08:08:54;;;;;;;;;16.00;14.00;;;;;21.10;46.48;99169.25;110035;1251;21793;-40
2023/03/08 08:11:22;;;;;;;;;12.00;11.00;;;;;21.06;46.26;99172.83;110022;1266;18546;-39
2023/03/08 08:13:49;;;;;;;;;11.00;10.00;;;;;20.99;45.20;99172.02;110014;1266;21748;-39
2023/03/08 08:16:17;;;;;;;;;15.00;13.00;;;;;20.99;43.99;99176.52;110015;1266;20813;-40
2023/03/08 08:18:44;;;;;;;;;17.00;14.00;;;;;21.01;42.77;99176.96;110016;1254;20343;-42
2023/03/08 08:21:12;;;;;;;;;13.67;12.33;;;;;21.01;41.43;99180.35;110028;1254;18182;-41
2023/03/08 08:23:39;;;;;;;;;9.00;7.50;;;;;20.96;40.35;99178.73;110035;1266;19350;-40
2023/03/08 08:26:07;;;;;;;;;17.00;11.00;;;;;20.89;40.09;99177.09;109766;1266;343065;-40
2023/03/08 08:28:34;;;;;;;;;13.00;11.00;;;;;20.94;40.66;99184.95;110015;1266;22897;-40
2023/03/08 08:31:02;;;;;;;;;8.00;8.00;;;;;20.98;41.01;99181.41;110040;1266;20685;-40
2023/03/08 08:33:30;;;;;;;;;11.00;10.00;;;;;21.10;41.86;99183.97;110043;1254;20002;-39
2023/03/08 08:35:57;;;;;;;;;11.00;11.00;;;;;21.18;42.46;99190.75;109995;1266;18598;-40
2023/03/08 08:38:25;;;;;;;;;8.00;7.00;;;;;21.20;43.03;99186.18;109997;1266;19435;-39
2023/03/08 08:40:52;;;;;;;;;11.00;10.00;;;;;21.23;43.45;99179.12;110049;1266;18680;-39
2023/03/08 08:43:19;;;;;;;;;10.00;10.00;;;;;21.30;43.55;99190.23;110000;1259;23342;-39
2023/03/08 08:45:47;;;;;;;;;7.00;7.00;;;;;21.30;43.80;99188.21;109991;1266;22858;-39
2023/03/08 08:48:14;;;;;;;;;10.00;8.00;;;;;21.26;44.41;99192.35;110009;1266;22661;-40
2023/03/08 08:50:42;;;;;;;;;10.00;8.00;;;;;21.28;44.55;99194.81;109903;1266;18704;-40
2023/03/08 08:53:10;;;;;;;;;10.00;8.00;;;;;21.19;44.49;99193.85;109953;1266;22910;-40
2023/03/08 08:55:37;;;;;;;;;8.00;7.00;;;;;21.11;42.80;99189.95;110108;1250;18550;-40
2023/03/08 08:58:04;;;;;;;;;9.00;8.00;;;;;21.06;41.27;99191.20;110017;1249;18620;-39
2023/03/08 09:00:32;;;;;;;;;7.00;7.00;;;;;21.04;40.73;99187.05;110005;1266;22193;-39
2023/03/08 09:02:59;;;;;;;;;5.00;5.00;;;;;21.00;40.54;99179.19;110036;1250;19636;-40
2023/03/08 09:05:27;;;;;;;;;7.00;7.00;;;;;21.07;41.18;99185.39;109916;1266;20025;-39
2023/03/08 09:07:54;;;;;;;;;8.00;7.00;;;;;21.12;41.47;99181.14;109946;1251;20839;-39
2023/03/08 09:10:22;;;;;;;;;7.50;7.00;;;;;21.20;42.08;99184.67;110036;1266;18381;-40
2023/03/08 09:12:49;;;;;;;;;13.00;10.00;;;;;21.18;42.46;99185.43;110034;1266;19951;-39
2023/03/08 09:15:17;;;;;;;;;10.00;8.00;;;;;21.11;43.08;99183.06;110024;1253;21131;-39
2023/03/08 09:17:44;;;;;;;;;8.00;7.00;;;;;21.16;43.25;99183.42;110024;1266;18615;-39
2023/03/08 09:20:11;;;;;;;;;8.00;8.00;;;;;21.19;43.62;99180.23;110030;1253;18603;-39
2023/03/08 09:22:39;;;;;;;;;11.00;10.00;;;;;21.13;43.98;99181.31;110013;1253;20712;-39
2023/03/08 09:25:06;;;;;;;;;9.00;9.00;;;;;21.02;44.54;99187.13;110051;1266;19555;-39
2023/03/08 09:27:34;;;;;;;;;11.00;10.00;;;;;20.99;44.69;99189.29;110032;1254;20104;-39
2023/03/08 09:30:01;;;;;;;;;14.00;13.00;;;;;20.97;44.99;99191.18;110004;1250;20863;-39
2023/03/08 09:32:29;;;;;;;;;10.50;9.00;;;;;20.91;45.02;99196.40;109989;1251;22431;-39
2023/03/08 09:34:56;;;;;;;;;11.00;11.00;;;;;20.89;45.16;99197.38;110025;1250;18663;-39
2023/03/08 09:37:23;;;;;;;;;13.00;11.00;;;;;20.90;45.26;99195.61;110035;1259;19558;-39
2023/03/08 09:39:51;;;;;;;;;9.00;8.00;;;;;20.87;45.62;99195.79;110005;1266;18546;-39
2023/03/08 09:42:19;;;;;;;;;14.00;11.00;;;;;20.85;45.66;99200.54;110003;1250;18647;-39
2023/03/08 09:44:46;;;;;;;;;10.00;10.00;;;;;20.85;45.58;99193.98;110003;1254;20373;-39
2023/03/08 09:47:14;;;;;;;;;12.50;12.00;;;;;20.83;45.66;99198.45;109945;1266;19926;-39
2023/03/08 09:49:42;;;;;;;;;12.00;10.50;;;;;20.81;45.80;99200.70;109921;1266;20097;-39
2023/03/08 09:52:09;;;;;;;;;16.00;13.00;;;;;20.79;45.99;99199.91;110075;1250;20696;-39
2023/03/08 09:54:37;;;;;;;;;13.00;11.00;;;;;20.78;45.86;99196.23;110057;1266;18612;-38
2023/03/08 09:57:07;;;;;;;;;13.00;11.00;;;;;20.77;45.92;99201.11;110013;1251;18850;-40
2023/03/08 09:59:35;;;;;;;;;22.50;13.50;;;;;20.80;45.78;99201.16;110025;1252;22815;-38
2023/03/08 10:02:02;;;;;;;;;13.50;12.00;;;;;20.79;45.68;99203.18;109997;1266;18614;-39
2023/03/08 10:04:30;;;;;;;;;14.00;13.00;;;;;20.77;45.96;99204.07;110042;1266;18824;-39
2023/03/08 10:06:57;;;;;;;;;20.50;13.00;;;;;20.75;45.95;99205.11;110004;1266;19374;-40
2023/03/08 10:09:25;;;;;;;;;16.33;14.67;;;;;20.73;45.90;99207.93;110015;1266;18541;-39
2023/03/08 10:11:52;;;;;;;;;13.50;13.50;;;;;20.74;45.94;99202.11;109989;1266;18963;-39
2023/03/08 10:14:19;;;;;;;;;16.00;13.50;;;;;20.74;46.01;99205.41;110035;1266;19454;-39
2023/03/08 10:16:47;;;;;;;;;13.00;11.00;;;;;20.73;45.84;99204.84;110032;1266;19954;-39
2023/03/08 10:19:14;;;;;;;;;23.00;16.00;;;;;20.72;45.81;99201.27;109999;1260;20035;-39
2023/03/08 10:21:42;;;;;;;;;16.00;13.00;;;;;20.70;45.71;99206.56;110044;1253;20837;-38
2023/03/08 10:24:09;;;;;;;;;13.50;13.50;;;;;20.66;45.64;99204.98;110022;1250;22765;-39
2023/03/08 10:26:36;;;;;;;;;16.00;14.00;;;;;20.61;44.55;99202.48;110008;1266;20069;-39
2023/03/08 10:29:04;;;;;;;;;18.00;13.50;;;;;20.57;44.03;99198.46;110023;1266;19443;-39
2023/03/08 10:31:32;;;;;;;;;11.00;11.00;;;;;20.61;44.06;99199.16;110020;1250;21548;-40
2023/03/08 10:33:59;;;;;;;;;14.00;13.00;;;;;20.57;43.59;99195.75;110011;1260;20208;-40
2023/03/08 10:36:27;;;;;;;;;16.00;14.00;;;;;20.48;41.97;99201.48;110034;1266;20811;-39
2023/03/08 10:38:54;;;;;;;;;16.00;15.00;;;;;20.30;39.54;99206.48;110040;1250;18579;-39
2023/03/08 10:41:22;;;;;;;;;10.00;10.00;;;;;20.21;37.87;99209.54;109962;1253;20154;-39
2023/03/08 10:43:49;;;;;;;;;11.00;9.00;;;;;20.10;37.12;99211.04;109956;1266;20835;-39
2023/03/08 10:46:17;;;;;;;;;11.00;8.00;;;;;20.00;35.92;99214.59;110064;1266;19904;-39
2023/03/08 10:48:44;;;;;;;;;10.00;10.00;;;;;19.92;34.78;99220.58;110060;1259;20053;-39
2023/03/08 10:51:12;;;;;;;;;11.00;10.00;;;;;19.82;33.95;99217.05;110016;1266;19379;-40
2023/03/08 10:53:39;;;;;;;;;11.00;10.00;;;;;19.72;33.41;99220.89;110046;1253;19997;-39
2023/03/08 10:56:06;;;;;;;;;9.00;9.00;;;;;19.67;32.71;99219.91;110013;1266;20826;-39
2023/03/08 10:58:35;;;;;;;;;9.00;7.00;;;;;19.64;32.29;99219.97;110031;1266;20783;-39
2023/03/08 11:01:02;;;;;;;;;9.00;8.00;;;;;19.62;31.67;99223.38;110078;1250;19556;-39
2023/03/08 11:03:30;;;;;;;;;9.00;6.00;;;;;19.66;32.15;99221.71;110019;1266;20678;-38
2023/03/08 11:05:57;;;;;;;;;8.00;7.00;;;;;19.80;32.93;99225.16;110020;1254;20875;-39
2023/03/08 11:08:25;;;;;;;;;10.00;9.00;;;;;19.93;33.39;99222.77;110046;1266;18599;-39
2023/03/08 11:10:52;;;;;;;;;9.00;7.00;;;;;20.09;34.21;99217.11;110050;1266;20126;-39
2023/03/08 11:13:19;;;;;;;;;6.00;6.00;;;;;20.21;34.61;99210.96;110017;1266;20742;-39
2023/03/08 11:15:47;;;;;;;;;9.00;7.00;;;;;20.25;34.68;99210.24;110003;1254;19650;-39
2023/03/08 11:18:14;;;;;;;;;10.00;7.00;;;;;20.26;34.67;99204.88;110015;1259;18651;-39
2023/03/08 11:20:44;;;;;;;;;4.00;4.00;;;;;20.30;35.09;99205.88;110015;1250;22052;-39